Hovedside
METAR-TAF:

METAR-TAF

Lufthavner :

Kansas City internasjonale lufthavn

Kansas City, Missouri, USA

breddegrad: 39-17-50N, lengdegrad: 094-43-50W, høyde over havet: 312 m

Gjeldene værobservasjon

Denne rapporten ble laget for 41 minutter siden, klokken 11:53 UTC
Vind 7 kt fra Nord
Temperatur 23°C
Luftfuktighet 78%
Trykk 1017 hPa
Sikt: 16.1 km
Brutte skyer i en høyde av 5000 ft
Brutte skyer i en høyde av 6000 ft

METAR: KMCI 161153Z 01007KT 10SM BKN050 BKN060 23/19 A3002 RMK AO2 SLP153 T02330189 10267 20222 53005

Tid: 07:34 (12:34 UTC)

Varsel

Denne rapporten ble laget for 1 time og 14 minutter siden, klokken 11:20 UTC
Varsel gyldig fra 16. klokken 12 UTC til 17. klokken 12 UTC
Vind 6 kt fra Nord-nordøst
Sikt: 10 km
Spredte skyer i en høyde av 6000 ft

TAF: KMCI 161120Z 1612/1712 03006KT P6SM SCT060

Værobservasjoner og værvarsel for over 4000 flyplasser (METAR- og TAF-rapporter).

Tilgjengelige stasjoner er representert av de røde og gule prikkene på kartet.

Hold musepekeren over prikken for å se navnet på stasjonen.

Klikk så for å se værobservasjoner og -varsler.

For å forandre kartet kan du klikke på den grønne knappen med svart kryss for å zoome inn, på den grønne knappen med strek for å zoome ut, eller på de grønne pilene for å se tilstøtende kart.


METAR-TAF: